Time;durP1;ratioP1;P1;durP2;ratioP2;P2;SDS_P1;SDS_P2;PMS_P1;PMS_P2;Temp;Humidity;BMP_temperature;BMP_pressure;BME280_temperature;BME280_humidity;BME280_pressure;Samples;Min_cycle;Max_cycle;Signal;HPM_P1;HPM_P2
2022/02/04 00:01:52;;;;;;;;;;;;;;;14.96;64.07;100775.53;1005680;29;783;-65
2022/02/04 00:06:55;;;;;;;;;;;;;;;14.91;64.28;100762.50;1020484;29;698;-67
2022/02/04 00:20:23;;;;;;;;;;;;;;;14.87;65.25;100766.41;1020637;29;845;-67
2022/02/04 00:21:26;;;;;;;;;;;;;;;14.85;63.97;100767.56;1022033;29;689;-67
2022/02/04 00:23:30;;;;;;;;;;;;;;;14.82;64.56;100755.25;1022595;28;674;-66
2022/02/04 00:24:21;;;;;;;;;;;;;;;14.80;64.75;100751.84;1019853;29;777;-66
2022/02/04 00:25:20;;;;;;;;;;;;;;;14.79;64.47;100755.50;1021485;29;686;-65
2022/02/04 00:26:17;;;;;;;;;;;;;;;14.80;65.06;100754.50;1017826;29;735;-65
2022/02/04 00:27:13;;;;;;;;;;;;;;;14.80;64.49;100753.66;1017295;29;671;-66
2022/02/04 00:28:13;;;;;;;;;;;;;;;14.82;65.06;100757.94;1020925;29;749;-65
2022/02/04 00:30:08;;;;;;;;;;;;;;;14.81;64.82;100755.38;1020418;28;1513;-65
2022/02/04 00:31:21;;;;;;;;;;;;;;;14.81;64.97;100752.69;1018177;29;666;-66
2022/02/04 00:32:10;;;;;;;;;;;;;;;14.80;64.97;100759.03;1017582;29;693;-67
2022/02/04 00:33:02;;;;;;;;;;;;;;;14.80;64.64;100759.88;1018496;29;1460;-66
2022/02/04 00:33:58;;;;;;;;;;;;;;;14.80;64.53;100751.84;1018589;29;1781;-68
2022/02/04 00:34:55;;;;;;;;;;;;;;;14.80;64.45;100751.84;1018098;29;666;-67
2022/02/04 00:35:55;;;;;;;;;;;;;;;14.80;64.66;100748.28;1018239;29;924;-66
2022/02/04 00:37:01;;;;;;;;;;;;;;;14.78;65.12;100751.09;1018085;29;794;-65
2022/02/04 00:37:59;;;;;;;;;;;;;;;14.78;64.06;100752.94;1018070;29;658;-65
2022/02/04 00:38:54;;;;;;;;;;;;;;;14.76;64.84;100742.34;1018167;29;821;-65
2022/02/04 00:39:53;;;;;;;;;;;;;;;14.76;65.59;100747.69;1017920;29;729;-66
2022/02/04 00:40:45;;;;;;;;;;;;;;;14.75;64.81;100751.34;1018022;29;965;-66
2022/02/04 00:41:38;;;;;;;;;;;;;;;14.76;63.95;100744.16;1018133;29;671;-66
2022/02/04 00:42:29;;;;;;;;;;;;;;;14.76;64.55;100739.66;1018237;29;791;-67
2022/02/04 00:43:20;;;;;;;;;;;;;;;14.75;64.92;100748.69;1018013;29;1047;-67
2022/02/04 00:44:19;;;;;;;;;;;;;;;14.75;64.88;100746.00;1018081;29;611;-67
2022/02/04 00:45:19;;;;;;;;;;;;;;;14.75;65.02;100740.63;1018101;29;676;-68
2022/02/04 00:46:17;;;;;;;;;;;;;;;14.73;65.36;100749.78;1018047;29;793;-67
2022/02/04 00:47:13;;;;;;;;;;;;;;;14.71;65.02;100749.06;1017960;29;890;-67
2022/02/04 00:48:36;;;;;;;;;;;;;;;14.70;65.55;100740.16;1018148;29;619;-66
2022/02/04 00:49:21;;;;;;;;;;;;;;;14.68;65.13;100728.72;1017149;29;816;-67
2022/02/04 00:50:24;;;;;;;;;;;;;;;14.68;64.94;100734.09;1018019;29;639;-67
2022/02/04 00:51:27;;;;;;;;;;;;;;;14.68;64.84;100734.09;1021588;29;1195;-67
2022/02/04 00:53:14;;;;;;;;;;;;;;;14.66;65.00;100736.06;1020836;29;733;-66
2022/02/04 00:55:27;;;;;;;;;;;;;;;14.68;64.83;100734.09;1021416;29;688;-68
2022/02/04 00:57:07;;;;;;;;;;;;;;;14.68;64.70;100733.25;1022584;28;660;-67
2022/02/04 01:26:27;;;;;;;;;;;;;;;14.61;64.87;100719.47;1013698;29;902;-66
2022/02/04 01:27:17;;;;;;;;;;;;;;;14.61;65.04;100716.81;1020240;29;1033;-65
2022/02/04 01:28:08;;;;;;;;;;;;;;;14.60;65.04;100720.47;1021392;29;639;-65
2022/02/04 01:28:59;;;;;;;;;;;;;;;14.60;64.80;100728.50;1021442;29;733;-65
2022/02/04 01:30:18;;;;;;;;;;;;;;;14.59;64.73;100735.69;1022006;29;629;-65
2022/02/04 01:31:00;;;;;;;;;;;;;;;14.60;64.55;100720.47;1021445;29;1569;-65
2022/02/04 01:31:50;;;;;;;;;;;;;;;14.58;65.38;100731.31;1017464;29;822;-65
2022/02/04 01:32:41;;;;;;;;;;;;;;;14.59;64.29;100729.50;1017555;29;880;-64
2022/02/04 01:33:31;;;;;;;;;;;;;;;14.59;64.99;100726.81;1017602;29;694;-66
2022/02/04 01:34:22;;;;;;;;;;;;;;;14.59;64.71;100724.97;1018047;29;661;-67
2022/02/04 01:35:12;;;;;;;;;;;;;;;14.58;64.95;100733.16;1017399;29;788;-68
2022/02/04 01:36:03;;;;;;;;;;;;;;;14.58;64.99;100722.41;1017503;29;760;-68
2022/02/04 01:36:53;;;;;;;;;;;;;;;14.58;65.21;100717.06;1017473;29;614;-68
2022/02/04 01:37:43;;;;;;;;;;;;;;;14.58;65.62;100719.72;1017549;29;679;-68
2022/02/04 01:38:34;;;;;;;;;;;;;;;14.57;65.30;100716.19;1017513;29;697;-68
2022/02/04 01:39:24;;;;;;;;;;;;;;;14.56;65.38;100721.69;1017413;29;797;-68
2022/02/04 01:40:15;;;;;;;;;;;;;;;14.55;64.73;100728.03;1017355;29;676;-68
2022/02/04 01:41:07;;;;;;;;;;;;;;;14.55;64.36;100722.66;1017352;29;686;-70
2022/02/04 01:41:58;;;;;;;;;;;;;;;14.54;65.27;100718.28;1018074;29;615;-70
2022/02/04 01:42:48;;;;;;;;;;;;;;;14.54;64.81;100720.97;1017532;29;683;-70
2022/02/04 01:43:38;;;;;;;;;;;;;;;14.53;65.08;100713.91;1017497;29;968;-69
2022/02/04 01:44:29;;;;;;;;;;;;;;;14.53;65.39;100721.94;1017530;29;611;-68
2022/02/04 01:45:19;;;;;;;;;;;;;;;14.52;64.57;100717.56;1017446;29;915;-69
2022/02/04 01:46:10;;;;;;;;;;;;;;;14.51;64.69;100715.88;1017375;29;670;-69
2022/02/04 01:47:00;;;;;;;;;;;;;;;14.51;65.23;100715.88;1017444;29;785;-68
2022/02/04 01:47:56;;;;;;;;;;;;;;;14.51;65.68;100716.69;1017475;29;639;-69
2022/02/04 01:48:47;;;;;;;;;;;;;;;14.50;65.70;100716.84;1017483;29;650;-68
2022/02/04 01:49:37;;;;;;;;;;;;;;;14.49;65.17;100717.84;1017516;29;852;-65
2022/02/04 01:50:28;;;;;;;;;;;;;;;14.50;64.82;100716.84;1017296;29;745;-64
2022/02/04 01:51:18;;;;;;;;;;;;;;;14.49;64.52;100717.84;1020808;29;658;-66
2022/02/04 01:52:09;;;;;;;;;;;;;;;14.50;64.89;100719.53;1023065;28;656;-66
2022/02/04 01:52:59;;;;;;;;;;;;;;;14.49;65.39;100718.69;1023234;28;701;-65
2022/02/04 01:53:49;;;;;;;;;;;;;;;14.52;64.77;100722.91;1023044;28;772;-65
2022/02/04 01:54:40;;;;;;;;;;;;;;;14.51;65.42;100707.84;1022190;29;650;-65
2022/02/04 01:55:30;;;;;;;;;;;;;;;14.52;64.66;100714.88;1023149;28;1972;-64
2022/02/04 01:56:21;;;;;;;;;;;;;;;14.50;64.79;100715.03;1022825;29;773;-65
2022/02/04 01:57:11;;;;;;;;;;;;;;;14.50;64.55;100709.66;1022550;28;1682;-65
2022/02/04 01:58:01;;;;;;;;;;;;;;;14.51;64.70;100703.28;1021940;29;888;-64
2022/02/04 01:58:52;;;;;;;;;;;;;;;14.50;65.32;100700.78;1018967;28;750;-64
2022/02/04 01:59:42;;;;;;;;;;;;;;;14.52;64.56;100704.16;1017957;29;860;-64
2022/02/04 02:00:33;;;;;;;;;;;;;;;14.50;64.48;100711.50;1021527;29;619;-63
2022/02/04 02:01:23;;;;;;;;;;;;;;;14.50;65.11;100711.50;1019035;28;698;-63
2022/02/04 02:02:14;;;;;;;;;;;;;;;14.48;64.65;100700.03;1017848;29;944;-63
2022/02/04 02:03:04;;;;;;;;;;;;;;;14.46;65.14;100694.81;1021491;29;615;-66
2022/02/04 02:03:56;;;;;;;;;;;;;;;14.47;65.48;100706.38;1018837;28;738;-65
2022/02/04 02:04:47;;;;;;;;;;;;;;;14.46;64.99;100697.50;1017892;29;694;-64
2022/02/04 02:05:37;;;;;;;;;;;;;;;14.48;64.37;100705.41;1021585;29;786;-64
2022/02/04 02:06:28;;;;;;;;;;;;;;;14.47;65.06;100699.19;1022141;29;752;-64
2022/02/04 02:07:21;;;;;;;;;;;;;;;14.47;65.47;100703.72;1022147;29;713;-64
2022/02/04 02:08:12;;;;;;;;;;;;;;;14.47;65.47;100698.34;1022422;29;755;-65
2022/02/04 02:09:02;;;;;;;;;;;;;;;14.48;64.88;100702.72;1022519;29;659;-64
2022/02/04 02:09:55;;;;;;;;;;;;;;;14.48;65.24;100694.69;1022067;29;651;-64
2022/02/04 02:10:46;;;;;;;;;;;;;;;14.48;65.24;100694.69;1022559;29;672;-64
2022/02/04 02:11:37;;;;;;;;;;;;;;;14.47;64.61;100693.84;1022573;29;697;-64
2022/02/04 02:12:34;;;;;;;;;;;;;;;14.46;65.05;100694.81;1021998;29;828;-64
2022/02/04 02:13:35;;;;;;;;;;;;;;;14.47;64.82;100698.34;1022395;29;903;-64
2022/02/04 02:14:28;;;;;;;;;;;;;;;14.45;64.93;100678.84;1022497;29;997;-65
2022/02/04 02:15:39;;;;;;;;;;;;;;;14.44;64.71;100678.00;1022550;29;1890;-64
2022/02/04 02:33:17;;;;;;;;;;;;;;;14.38;64.98;100646.28;1020910;29;685;-69
2022/02/04 02:33:22;;;;;;;;;;;;;;;14.42;65.22;100674.59;1022552;29;718;-64
2022/02/04 02:35:34;;;;;;;;;;;;;;;14.41;64.13;100647.91;1020712;29;794;-70
2022/02/04 02:36:58;;;;;;;;;;;;;;;14.40;64.65;100654.22;1021366;29;705;-69
2022/02/04 02:48:36;;;;;;;;;;;;;;;14.34;64.50;100636.81;1021817;29;877;-71
2022/02/04 02:52:27;;;;;;;;;;;;;;;14.34;64.95;100644.84;1018337;29;653;-71
2022/02/04 02:57:43;;;;;;;;;;;;;;;14.32;65.49;100641.47;1019058;29;693;-69
2022/02/04 02:58:35;;;;;;;;;;;;;;;14.32;65.25;100629.91;1017855;29;926;-69
2022/02/04 02:59:34;;;;;;;;;;;;;;;14.30;64.82;100626.50;1017900;29;686;-69
2022/02/04 03:01:33;;;;;;;;;;;;;;;14.29;64.90;100625.63;1017937;29;667;-66
2022/02/04 03:02:24;;;;;;;;;;;;;;;14.29;65.04;100617.59;1017885;29;793;-66
2022/02/04 03:03:16;;;;;;;;;;;;;;;14.30;64.68;100618.44;1017349;29;721;-65
2022/02/04 03:04:11;;;;;;;;;;;;;;;14.31;65.07;100625.50;1017914;29;782;-65
2022/02/04 03:05:02;;;;;;;;;;;;;;;14.29;65.15;100625.63;1017900;29;772;-65
2022/02/04 03:05:52;;;;;;;;;;;;;;;14.29;65.22;100622.09;1017804;29;637;-65
2022/02/04 03:06:42;;;;;;;;;;;;;;;14.29;64.53;100619.44;1017910;29;902;-65
2022/02/04 03:07:33;;;;;;;;;;;;;;;14.28;64.55;100623.09;1017932;29;681;-65
2022/02/04 03:08:23;;;;;;;;;;;;;;;14.28;65.06;100623.09;1017889;29;652;-64
2022/02/04 03:09:14;;;;;;;;;;;;;;;14.28;64.87;100612.34;1017834;29;723;-65
2022/02/04 03:10:04;;;;;;;;;;;;;;;14.29;65.13;100624.78;1017871;29;679;-65
2022/02/04 03:10:58;;;;;;;;;;;;;;;14.28;64.69;100626.63;1018118;29;1509;-65
2022/02/04 03:11:48;;;;;;;;;;;;;;;14.28;65.25;100626.63;1017378;29;1199;-65
2022/02/04 03:12:41;;;;;;;;;;;;;;;14.28;65.49;100629.28;1017824;29;805;-65
2022/02/04 03:13:34;;;;;;;;;;;;;;;14.28;64.98;100628.44;1018355;29;1064;-65
2022/02/04 03:14:25;;;;;;;;;;;;;;;14.28;64.72;100623.09;1018504;29;706;-64
2022/02/04 03:15:15;;;;;;;;;;;;;;;14.28;64.90;100613.22;1018382;29;831;-65
2022/02/04 03:16:10;;;;;;;;;;;;;;;14.27;65.30;100618.69;1017888;29;666;-65
2022/02/04 03:17:06;;;;;;;;;;;;;;;14.27;64.45;100616.03;1018246;29;708;-66
2022/02/04 03:18:01;;;;;;;;;;;;;;;14.25;64.61;100622.34;1018376;29;721;-65
2022/02/04 03:18:52;;;;;;;;;;;;;;;14.27;64.63;100629.41;1018412;29;709;-69
2022/02/04 03:19:47;;;;;;;;;;;;;;;14.27;65.17;100624.91;1014869;29;753;-68
2022/02/04 03:20:47;;;;;;;;;;;;;;;14.26;64.56;100620.53;1014299;29;835;-68
2022/02/04 03:21:44;;;;;;;;;;;;;;;14.25;64.34;100627.72;1017946;29;758;-69
2022/02/04 03:22:35;;;;;;;;;;;;;;;14.24;64.62;100617.97;1017403;29;770;-69
2022/02/04 03:23:28;;;;;;;;;;;;;;;14.23;64.44;100613.59;1017225;29;795;-68
2022/02/04 03:24:22;;;;;;;;;;;;;;;14.22;64.89;100611.03;1017336;29;639;-68
2022/02/04 03:25:14;;;;;;;;;;;;;;;14.23;65.12;100604.69;1017330;29;726;-68
2022/02/04 03:26:10;;;;;;;;;;;;;;;14.23;65.11;100610.91;1017281;29;724;-68
2022/02/04 03:27:07;;;;;;;;;;;;;;;14.22;65.23;100609.22;1017322;29;768;-68
2022/02/04 03:27:59;;;;;;;;;;;;;;;14.24;64.50;100606.41;1017232;29;708;-69
2022/02/04 03:28:50;;;;;;;;;;;;;;;14.23;65.42;100604.69;1017302;29;779;-68
2022/02/04 03:30:51;;;;;;;;;;;;;;;14.22;64.88;100603.84;1017825;29;663;-68
2022/02/04 03:31:47;;;;;;;;;;;;;;;14.21;65.11;100599.47;1017267;29;882;-68
2022/02/04 03:32:43;;;;;;;;;;;;;;;14.19;64.64;100588.03;1017130;29;713;-69
2022/02/04 03:33:35;;;;;;;;;;;;;;;14.20;64.85;100597.75;1017307;29;674;-69
2022/02/04 03:34:25;;;;;;;;;;;;;;;14.20;64.92;100600.44;1017234;29;706;-66
2022/02/04 03:35:20;;;;;;;;;;;;;;;14.20;65.22;100592.41;1017312;29;1213;-66
2022/02/04 03:36:10;;;;;;;;;;;;;;;14.22;64.76;100598.47;1017223;29;781;-66
2022/02/04 03:37:01;;;;;;;;;;;;;;;14.21;64.98;100596.78;1017260;29;702;-65
2022/02/04 03:37:51;;;;;;;;;;;;;;;14.22;64.96;100597.63;1017181;29;950;-65
2022/02/04 03:38:42;;;;;;;;;;;;;;;14.21;64.09;100602.16;1017242;29;659;-66
2022/02/04 03:39:33;;;;;;;;;;;;;;;14.20;64.32;100600.44;1017753;29;683;-65
2022/02/04 03:40:23;;;;;;;;;;;;;;;14.20;64.35;100596.91;1015986;29;870;-66
2022/02/04 03:41:13;;;;;;;;;;;;;;;14.20;64.92;100594.22;1016950;29;679;-65
2022/02/04 03:42:04;;;;;;;;;;;;;;;14.18;65.03;100599.72;1016842;29;776;-65
2022/02/04 03:42:54;;;;;;;;;;;;;;;14.20;64.89;100592.41;1017248;29;743;-65
2022/02/04 03:43:45;;;;;;;;;;;;;;;14.21;64.36;100595.94;1017142;29;1072;-65
2022/02/04 03:44:36;;;;;;;;;;;;;;;14.19;64.83;100596.06;1017249;29;757;-65
2022/02/04 03:45:26;;;;;;;;;;;;;;;14.19;64.76;100604.09;1016111;29;705;-65
2022/02/04 03:46:17;;;;;;;;;;;;;;;14.20;64.43;100595.06;1017252;29;772;-65
2022/02/04 03:47:07;;;;;;;;;;;;;;;14.19;65.43;100588.03;1017110;29;609;-65
2022/02/04 03:47:57;;;;;;;;;;;;;;;14.20;64.94;100595.06;1017116;29;635;-65
2022/02/04 03:48:48;;;;;;;;;;;;;;;14.20;64.71;100596.91;1017294;29;643;-65
2022/02/04 03:49:38;;;;;;;;;;;;;;;14.20;64.84;100589.72;1017266;29;694;-65
2022/02/04 03:50:29;;;;;;;;;;;;;;;14.20;64.78;100584.34;1017221;29;766;-65
2022/02/04 03:51:19;;;;;;;;;;;;;;;14.19;64.54;100593.38;1017178;29;635;-65
2022/02/04 03:52:09;;;;;;;;;;;;;;;14.19;64.26;100593.38;1017221;29;615;-65
2022/02/04 03:53:00;;;;;;;;;;;;;;;14.19;64.75;100595.22;1017109;29;703;-66
2022/02/04 03:53:50;;;;;;;;;;;;;;;14.18;64.75;100589.00;1017153;29;702;-65
2022/02/04 03:54:41;;;;;;;;;;;;;;;14.19;65.07;100595.22;1017197;29;649;-65
2022/02/04 03:55:32;;;;;;;;;;;;;;;14.19;64.73;100592.53;1017107;29;1984;-65
2022/02/04 03:56:22;;;;;;;;;;;;;;;14.18;64.62;100586.31;1016907;29;647;-65
2022/02/04 03:57:13;;;;;;;;;;;;;;;14.17;64.32;100583.75;1017406;29;706;-66
2022/02/04 03:58:03;;;;;;;;;;;;;;;14.17;64.88;100584.63;1017083;29;694;-65
2022/02/04 03:58:54;;;;;;;;;;;;;;;14.16;64.83;100584.75;1017127;29;746;-64
2022/02/04 03:59:45;;;;;;;;;;;;;;;14.15;64.45;100588.44;1017215;29;689;-66
2022/02/04 04:00:35;;;;;;;;;;;;;;;14.14;64.61;100579.53;1016017;29;817;-65
2022/02/04 04:01:26;;;;;;;;;;;;;;;14.15;63.86;100586.56;1017204;29;684;-65
2022/02/04 04:02:16;;;;;;;;;;;;;;;14.15;64.93;100588.44;1017140;29;690;-64
2022/02/04 04:03:07;;;;;;;;;;;;;;;14.16;64.26;100582.06;1016787;29;843;-64
2022/02/04 04:03:57;;;;;;;;;;;;;;;14.15;64.75;100583.88;1017404;29;741;-65
2022/02/04 04:04:48;;;;;;;;;;;;;;;14.14;64.93;100582.22;1017312;29;816;-66
2022/02/04 04:05:44;;;;;;;;;;;;;;;14.14;64.37;100587.56;1016765;29;732;-64
2022/02/04 04:06:35;;;;;;;;;;;;;;;14.12;64.22;100586.84;1017548;29;682;-65
2022/02/04 04:07:25;;;;;;;;;;;;;;;14.12;64.63;100592.22;1016969;29;733;-65
2022/02/04 04:08:16;;;;;;;;;;;;;;;14.12;64.98;100584.19;1016690;29;713;-65
2022/02/04 04:09:07;;;;;;;;;;;;;;;14.10;65.01;100588.81;1017021;29;760;-65
2022/02/04 04:10:06;;;;;;;;;;;;;;;14.11;63.76;100590.50;1016629;29;627;-65
2022/02/04 04:10:56;;;;;;;;;;;;;;;14.12;64.30;100588.69;1017144;29;711;-66
2022/02/04 04:11:48;;;;;;;;;;;;;;;14.12;64.37;100594.88;1012943;29;675;-66
2022/02/04 04:12:38;;;;;;;;;;;;;;;14.10;64.67;100596.00;1009164;29;892;-66
2022/02/04 04:13:29;;;;;;;;;;;;;;;14.09;64.49;100592.47;1013319;29;930;-65
2022/02/04 04:14:19;;;;;;;;;;;;;;;14.08;65.08;100589.91;1016430;29;713;-66
2022/02/04 04:15:10;;;;;;;;;;;;;;;14.10;64.58;100588.81;1016738;29;981;-65
2022/02/04 04:16:01;;;;;;;;;;;;;;;14.09;64.62;100586.25;1017136;29;765;-65
2022/02/04 04:16:51;;;;;;;;;;;;;;;14.10;64.67;100590.63;1016509;29;603;-65
2022/02/04 04:17:43;;;;;;;;;;;;;;;14.09;64.32;100592.47;1016629;29;833;-65
2022/02/04 04:18:34;;;;;;;;;;;;;;;14.09;64.01;100592.47;1017144;29;674;-65
2022/02/04 04:19:24;;;;;;;;;;;;;;;14.10;63.86;100586.13;1016677;29;788;-65
2022/02/04 04:20:15;;;;;;;;;;;;;;;14.10;64.23;100583.44;1017037;29;705;-65
2022/02/04 04:21:05;;;;;;;;;;;;;;;14.09;63.84;100589.78;1016515;29;655;-65
2022/02/04 04:21:56;;;;;;;;;;;;;;;14.08;63.91;100589.91;1016595;29;861;-65
2022/02/04 04:22:46;;;;;;;;;;;;;;;14.07;64.17;100588.22;1016575;29;740;-63
2022/02/04 04:23:36;;;;;;;;;;;;;;;14.06;64.39;100581.16;1016581;29;674;-65
2022/02/04 04:24:27;;;;;;;;;;;;;;;14.05;64.03;100588.34;1016405;29;631;-66
2022/02/04 04:25:17;;;;;;;;;;;;;;;14.06;64.61;100591.88;1016621;29;658;-65
2022/02/04 04:26:08;;;;;;;;;;;;;;;14.07;64.40;100586.38;1016192;29;927;-65
2022/02/04 04:26:58;;;;;;;;;;;;;;;14.08;64.60;100581.88;1016563;29;768;-65
2022/02/04 04:27:49;;;;;;;;;;;;;;;14.06;64.49;100582.00;1018519;29;1609;-65
2022/02/04 04:28:39;;;;;;;;;;;;;;;14.06;64.13;100579.31;1022694;28;947;-64
2022/02/04 04:29:29;;;;;;;;;;;;;;;14.07;64.60;100578.34;1017782;29;733;-65
2022/02/04 04:30:21;;;;;;;;;;;;;;;14.07;64.36;100578.34;1017106;29;953;-64
2022/02/04 04:31:12;;;;;;;;;;;;;;;14.07;64.74;100581.00;1017080;29;709;-64
2022/02/04 04:32:02;;;;;;;;;;;;;;;14.07;64.58;100578.34;1016962;29;665;-65
2022/02/04 04:32:53;;;;;;;;;;;;;;;14.06;64.62;100573.97;1017120;29;826;-65
2022/02/04 04:33:44;;;;;;;;;;;;;;;14.07;64.02;100578.34;1017199;29;665;-65
2022/02/04 04:34:34;;;;;;;;;;;;;;;14.06;64.16;100576.63;1016882;29;1067;-65
2022/02/04 04:35:25;;;;;;;;;;;;;;;14.08;63.74;100569.31;1017167;29;646;-65
2022/02/04 04:36:18;;;;;;;;;;;;;;;14.07;64.71;100583.69;1017126;29;847;-65
2022/02/04 04:37:08;;;;;;;;;;;;;;;14.07;64.39;100581.00;1017056;29;635;-65
2022/02/04 04:38:10;;;;;;;;;;;;;;;14.07;64.08;100574.81;1017166;29;639;-65
2022/02/04 04:39:43;;;;;;;;;;;;;;;14.07;64.31;100575.66;1016954;29;646;-65
2022/02/04 04:41:13;;;;;;;;;;;;;;;14.06;64.39;100581.16;1017110;29;654;-65
2022/02/04 04:44:17;;;;;;;;;;;;;;;14.04;64.11;100583.09;1017544;29;1166;-65
2022/02/04 04:45:38;;;;;;;;;;;;;;;14.04;64.60;100577.75;1016485;29;700;-66
2022/02/04 05:28:55;;;;;;;;;;;;;;;14.50;61.07;100539.88;1018742;29;918;-66
2022/02/04 05:29:46;;;;;;;;;;;;;;;14.51;61.03;100529.00;1015115;29;749;-66
2022/02/04 05:30:36;;;;;;;;;;;;;;;14.53;61.01;100540.44;1012865;29;881;-66
2022/02/04 05:31:27;;;;;;;;;;;;;;;14.55;61.33;100529.59;1018756;29;671;-66
2022/02/04 05:32:17;;;;;;;;;;;;;;;14.53;61.18;100537.78;1019484;28;610;-67
2022/02/04 05:33:08;;;;;;;;;;;;;;;14.53;61.04;100531.56;1019329;28;729;-67
2022/02/04 05:33:58;;;;;;;;;;;;;;;14.56;61.57;100532.16;1014656;29;720;-66
2022/02/04 05:34:50;;;;;;;;;;;;;;;14.55;61.58;100530.44;1015159;29;786;-67
2022/02/04 05:35:40;;;;;;;;;;;;;;;14.57;61.54;100533.00;1016501;29;1964;-67
2022/02/04 05:36:35;;;;;;;;;;;;;;;14.59;60.76;100533.72;1019304;28;622;-66
2022/02/04 05:37:25;;;;;;;;;;;;;;;14.60;61.40;100532.75;1017651;29;706;-66
2022/02/04 05:38:16;;;;;;;;;;;;;;;14.61;61.65;100531.75;1019401;28;965;-66
2022/02/04 05:39:07;;;;;;;;;;;;;;;14.63;61.12;100526.25;1018667;29;737;-66
2022/02/04 05:40:01;;;;;;;;;;;;;;;14.63;60.75;100523.59;1019320;29;804;-66
2022/02/04 05:40:53;;;;;;;;;;;;;;;14.63;61.44;100521.75;1018720;29;787;-66
2022/02/04 05:41:47;;;;;;;;;;;;;;;14.62;60.80;100525.41;1018778;29;638;-68
2022/02/04 05:42:44;;;;;;;;;;;;;;;14.63;61.59;100521.75;1018911;29;638;-68
2022/02/04 05:43:37;;;;;;;;;;;;;;;14.65;61.45;100516.25;1018703;29;954;-69
2022/02/04 05:44:27;;;;;;;;;;;;;;;14.64;61.21;100512.72;1019687;29;1505;-68
2022/02/04 05:45:22;;;;;;;;;;;;;;;14.65;60.81;100514.44;1018237;29;898;-66
2022/02/04 05:46:17;;;;;;;;;;;;;;;14.68;60.64;100506.13;1018727;29;638;-64
2022/02/04 05:47:15;;;;;;;;;;;;;;;14.67;61.26;100509.78;1018729;29;654;-68
2022/02/04 05:48:07;;;;;;;;;;;;;;;14.70;60.77;100512.16;1018186;29;659;-69
2022/02/04 05:48:59;;;;;;;;;;;;;;;14.69;61.21;100507.78;1018202;29;666;-69
2022/02/04 05:50:15;;;;;;;;;;;;;;;14.70;60.95;100508.63;1018793;29;689;-64
2022/02/04 05:52:18;;;;;;;;;;;;;;;14.74;61.32;100502.03;1022077;29;663;-63
2022/02/04 05:53:23;;;;;;;;;;;;;;;14.73;60.89;100495.81;1021492;29;773;-65
2022/02/04 05:54:21;;;;;;;;;;;;;;;14.73;60.66;100494.97;1021418;29;663;-65
2022/02/04 05:55:47;;;;;;;;;;;;;;;14.71;61.38;100491.56;1021703;29;824;-66
2022/02/04 05:59:08;;;;;;;;;;;;;;;14.73;61.30;100484.22;1020824;29;1093;-65
2022/02/04 06:02:11;;;;;;;;;;;;;;;14.73;61.76;100484.22;1020564;29;1543;-71
2022/02/04 06:03:33;;;;;;;;;;;;;;;14.72;61.27;100477.16;1022687;29;772;-68
2022/02/04 06:04:44;;;;;;;;;;;;;;;14.72;61.67;100467.28;1022594;29;1085;-66
2022/02/04 06:07:27;;;;;;;;;;;;;;;14.68;61.39;100476.63;1023168;28;691;-65
2022/02/04 06:10:32;;;;;;;;;;;;;;;14.64;61.74;100469.81;1023076;28;893;-66
2022/02/04 06:12:46;;;;;;;;;;;;;;;14.66;61.51;100467.00;1021784;29;1250;-66
2022/02/04 06:14:04;;;;;;;;;;;;;;;14.65;61.47;100471.50;1019267;29;1212;-64
2022/02/04 06:22:50;;;;;;;;;;;;;;;14.68;61.68;100481.97;1022491;29;1587;-66
2022/02/04 06:23:41;;;;;;;;;;;;;;;14.70;61.45;100479.97;1018132;29;1670;-66
2022/02/04 06:24:31;;;;;;;;;;;;;;;14.69;61.71;100478.28;1013902;29;896;-66
2022/02/04 06:25:22;;;;;;;;;;;;;;;14.71;61.59;100479.00;1022561;29;1535;-66
2022/02/04 06:26:12;;;;;;;;;;;;;;;14.72;61.47;100480.69;1021419;29;764;-66
2022/02/04 06:27:02;;;;;;;;;;;;;;;14.72;61.30;100483.38;1018278;29;947;-66
2022/02/04 06:27:53;;;;;;;;;;;;;;;14.71;61.41;100476.31;1017832;29;676;-66
2022/02/04 06:28:43;;;;;;;;;;;;;;;14.70;61.25;100479.13;1021675;29;962;-66
2022/02/04 06:29:34;;;;;;;;;;;;;;;14.68;61.17;100490.03;1021355;29;1763;-66
2022/02/04 06:30:24;;;;;;;;;;;;;;;14.67;61.30;100491.00;1021989;29;677;-66
2022/02/04 06:31:14;;;;;;;;;;;;;;;14.66;62.00;100489.31;1021941;29;849;-65
2022/02/04 06:32:05;;;;;;;;;;;;;;;14.64;61.99;100483.22;1022062;29;803;-65
2022/02/04 06:32:55;;;;;;;;;;;;;;;14.63;61.90;100483.34;1020719;29;1489;-65
2022/02/04 06:33:46;;;;;;;;;;;;;;;14.61;61.25;100496.03;1018117;29;786;-66
2022/02/04 06:34:36;;;;;;;;;;;;;;;14.61;61.28;100491.53;1019860;29;1547;-66
2022/02/04 06:35:27;;;;;;;;;;;;;;;14.63;63.51;100489.56;1019327;29;1430;-65
2022/02/04 06:36:17;;;;;;;;;;;;;;;14.66;65.23;100485.78;1021846;29;1399;-65
2022/02/04 06:37:07;;;;;;;;;;;;;;;14.65;65.09;100481.38;1021935;29;1532;-66
2022/02/04 06:38:00;;;;;;;;;;;;;;;14.65;65.08;100482.25;1021078;29;1712;-66
2022/02/04 06:38:50;;;;;;;;;;;;;;;14.65;65.50;100481.38;1021268;29;1302;-65
2022/02/04 06:39:41;;;;;;;;;;;;;;;14.63;65.70;100478.84;1021463;29;1445;-66
2022/02/04 06:40:31;;;;;;;;;;;;;;;14.64;66.05;100479.69;1018086;29;654;-65
2022/02/04 06:41:21;;;;;;;;;;;;;;;14.62;66.47;100482.50;1021791;29;1488;-64
2022/02/04 06:42:12;;;;;;;;;;;;;;;14.64;66.09;100485.91;1020235;29;1469;-64
2022/02/04 06:43:02;;;;;;;;;;;;;;;14.63;66.50;100475.31;1020282;29;1681;-63
2022/02/04 06:43:53;;;;;;;;;;;;;;;14.63;66.46;100475.31;1021138;29;1339;-64
2022/02/04 06:44:43;;;;;;;;;;;;;;;14.62;66.46;100479.81;1020210;29;1735;-63
2022/02/04 06:45:34;;;;;;;;;;;;;;;14.61;66.73;100480.81;1020071;29;1483;-63
2022/02/04 06:46:27;;;;;;;;;;;;;;;14.61;66.54;100486.16;1021334;29;1509;-64
2022/02/04 06:47:17;;;;;;;;;;;;;;;14.61;66.10;100479.94;1021661;29;1009;-64
2022/02/04 06:48:08;;;;;;;;;;;;;;;14.61;66.38;100479.94;1021045;29;1362;-64
2022/02/04 06:48:58;;;;;;;;;;;;;;;14.63;66.51;100478.84;1020615;29;1580;-65
2022/02/04 06:49:48;;;;;;;;;;;;;;;14.63;66.40;100488.72;1021625;29;1655;-66
2022/02/04 06:50:39;;;;;;;;;;;;;;;14.64;66.01;100483.22;1018293;29;1478;-66
2022/02/04 06:51:29;;;;;;;;;;;;;;;14.63;65.88;100494.94;1018304;29;802;-66
2022/02/04 06:52:20;;;;;;;;;;;;;;;14.63;66.15;100480.66;1017717;29;1408;-66
2022/02/04 06:53:10;;;;;;;;;;;;;;;14.62;65.90;100485.19;1014879;29;1366;-66
2022/02/04 06:54:01;;;;;;;;;;;;;;;14.60;66.07;100487.16;1019818;29;1364;-67
2022/02/04 06:54:51;;;;;;;;;;;;;;;14.60;65.56;100495.19;1019788;29;1482;-66
2022/02/04 06:55:41;;;;;;;;;;;;;;;14.57;65.88;100484.72;1020980;29;1906;-67
2022/02/04 06:56:34;;;;;;;;;;;;;;;14.56;65.55;100483.03;1019816;29;1445;-66
2022/02/04 06:57:25;;;;;;;;;;;;;;;14.55;65.44;100484.00;1017951;29;729;-67
2022/02/04 06:58:15;;;;;;;;;;;;;;;14.55;65.42;100481.31;1022103;28;1403;-67
2022/02/04 06:59:06;;;;;;;;;;;;;;;14.54;65.27;100469.75;1019766;29;1503;-67
2022/02/04 06:59:58;;;;;;;;;;;;;;;14.52;65.29;100474.41;1014880;29;1652;-67
2022/02/04 07:00:48;;;;;;;;;;;;;;;14.52;65.16;100487.81;1016189;29;1665;-68
2022/02/04 07:01:38;;;;;;;;;;;;;;;14.50;65.18;100475.53;1019417;29;1506;-66
2022/02/04 07:02:29;;;;;;;;;;;;;;;14.52;65.24;100484.28;1021409;29;808;-66
2022/02/04 07:03:19;;;;;;;;;;;;;;;14.52;64.63;100484.28;1021282;29;623;-66
2022/02/04 07:04:12;;;;;;;;;;;;;;;14.52;64.77;100484.28;1021308;29;661;-67
2022/02/04 07:05:09;;;;;;;;;;;;;;;14.52;64.99;100477.06;1020613;29;698;-66
2022/02/04 07:06:01;;;;;;;;;;;;;;;14.50;65.01;100483.59;1021387;29;727;-66
2022/02/04 07:06:55;;;;;;;;;;;;;;;14.51;64.89;100487.97;1020564;29;929;-66
2022/02/04 07:07:53;;;;;;;;;;;;;;;14.49;65.25;100482.75;1021291;29;695;-66
2022/02/04 07:09:01;;;;;;;;;;;;;;;14.48;64.84;100477.50;1016787;29;947;-66
2022/02/04 07:09:57;;;;;;;;;;;;;;;14.48;64.65;100480.19;1017731;29;2142;-67
2022/02/04 07:12:54;;;;;;;;;;;;;;;14.49;64.59;100472.00;1022262;29;886;-66
2022/02/04 07:15:03;;;;;;;;;;;;;;;14.47;64.31;100457.88;1022394;29;677;-66
2022/02/04 07:15:53;;;;;;;;;;;;;;;14.46;64.50;100466.06;1021160;29;1903;-66
2022/02/04 07:19:49;;;;;;;;;;;;;;;14.44;63.88;100465.34;1017187;29;799;-67